createdAt,value
2022-11-25T00:03:48.395Z,64.20
2022-11-25T00:08:54.586Z,64.30
2022-11-25T00:13:57.802Z,64.80
2022-11-25T00:19:00.470Z,65.30
2022-11-25T00:24:06.628Z,64.60
2022-11-25T00:29:11.978Z,64.80
2022-11-25T00:34:15.263Z,64.40
2022-11-25T00:39:18.586Z,65.10
2022-11-25T00:44:38.302Z,65.30
2022-11-25T00:49:44.052Z,64.50
2022-11-25T00:54:47.816Z,64.80
2022-11-25T00:59:50.279Z,65.00
2022-11-25T01:04:52.528Z,65.00
2022-11-25T01:09:54.861Z,65.00
2022-11-25T01:14:59.890Z,65.10
2022-11-25T01:20:03.773Z,65.10
2022-11-25T01:25:06.156Z,65.20
2022-11-25T01:30:09.208Z,65.50
2022-11-25T01:35:11.543Z,65.60
2022-11-25T01:40:13.861Z,65.50
2022-11-25T01:45:35.358Z,65.60
2022-11-25T01:50:37.877Z,65.60
2022-11-25T01:55:43.513Z,65.70
2022-11-25T02:00:51.441Z,65.60
2022-11-25T02:11:22.041Z,65.50
2022-11-25T02:16:24.296Z,65.80
2022-11-25T02:21:37.633Z,65.80
2022-11-25T02:26:40.063Z,66.20
2022-11-25T02:31:44.697Z,66.30
2022-11-25T02:36:47.109Z,66.20
2022-11-25T02:41:56.133Z,66.50
2022-11-25T02:46:58.360Z,66.30
2022-11-25T02:52:00.596Z,65.90
2022-11-25T02:57:04.431Z,66.10
2022-11-25T03:02:10.339Z,66.20
2022-11-25T03:07:12.626Z,66.40
2022-11-25T03:12:22.848Z,66.30
2022-11-25T03:17:28.751Z,66.10
2022-11-25T03:22:31.439Z,66.50
2022-11-25T03:27:35.090Z,66.00
2022-11-25T03:32:38.275Z,66.50
2022-11-25T03:37:41.188Z,66.10
2022-11-25T03:42:44.144Z,66.40
2022-11-25T03:47:46.479Z,66.70
2022-11-25T03:52:48.804Z,65.50
2022-11-25T03:57:53.069Z,65.60
2022-11-25T04:02:56.689Z,64.90
2022-11-25T04:07:59.014Z,65.80
2022-11-25T04:13:02.241Z,65.30
2022-11-25T04:18:11.140Z,65.80
2022-11-25T04:23:15.434Z,65.50
2022-11-25T04:28:27.505Z,66.00
2022-11-25T04:33:30.437Z,66.20
2022-11-25T04:38:32.841Z,66.50
2022-11-25T04:43:37.683Z,66.60
2022-11-25T04:48:45.643Z,66.80
2022-11-25T04:53:49.988Z,66.50
2022-11-25T04:59:12.352Z,67.00
2022-11-25T05:04:19.146Z,66.50
2022-11-25T05:09:21.541Z,67.00
2022-11-25T05:14:33.211Z,66.80
2022-11-25T05:19:36.593Z,67.10
2022-11-25T05:24:39.601Z,68.20
2022-11-25T05:29:42.643Z,66.90
2022-11-25T05:34:46.465Z,66.90
2022-11-25T05:39:49.654Z,67.20
2022-11-25T05:45:17.908Z,66.80
2022-11-25T05:50:20.331Z,67.10
2022-11-25T05:55:38.290Z,66.90
2022-11-25T06:00:48.574Z,67.20
2022-11-25T06:05:52.537Z,66.60
2022-11-25T06:10:55.352Z,67.10
2022-11-25T06:15:57.770Z,67.80
2022-11-25T06:21:00.596Z,66.80
2022-11-25T06:31:19.636Z,67.10
2022-11-25T06:36:41.735Z,68.00
2022-11-25T06:41:43.928Z,67.70
2022-11-25T06:46:46.392Z,67.40
2022-11-25T06:51:50.246Z,67.20
2022-11-25T06:56:53.846Z,67.80
2022-11-25T07:01:56.673Z,67.70
2022-11-25T07:06:58.906Z,67.30
2022-11-25T07:12:01.171Z,67.60
2022-11-25T07:17:07.424Z,68.20
2022-11-25T07:22:12.647Z,70.00
2022-11-25T07:27:15.043Z,71.40
2022-11-25T07:32:17.282Z,71.20
2022-11-25T07:37:19.661Z,68.60
2022-11-25T07:42:21.883Z,67.20
2022-11-25T07:47:25.455Z,65.00
2022-11-25T07:52:27.725Z,64.20
2022-11-25T07:57:29.890Z,61.70
2022-11-25T08:02:32.155Z,61.50
2022-11-25T08:07:36.633Z,58.70
2022-11-25T08:12:39.211Z,63.50
2022-11-25T08:17:41.421Z,59.80
2022-11-25T08:22:43.814Z,59.90
2022-11-25T08:27:46.054Z,61.40
2022-11-25T08:32:48.515Z,59.30
2022-11-25T08:37:50.930Z,56.80
2022-11-25T08:42:53.114Z,57.00
2022-11-25T08:47:55.498Z,56.10
2022-11-25T08:52:58.618Z,53.90
2022-11-25T08:58:00.827Z,53.40
2022-11-25T09:03:04.480Z,53.90
2022-11-25T09:08:08.193Z,54.10
2022-11-25T09:13:11.703Z,55.80
2022-11-25T09:18:15.547Z,56.70
2022-11-25T09:23:17.909Z,57.00
2022-11-25T09:28:21.269Z,57.20
2022-11-25T09:33:23.897Z,57.00
2022-11-25T09:38:26.113Z,56.50
2022-11-25T09:54:37.622Z,57.60
2022-11-25T10:05:22.199Z,57.60
2022-11-25T10:10:36.035Z,57.90
2022-11-25T10:15:44.516Z,58.40
2022-11-25T10:20:49.443Z,57.90
2022-11-25T10:25:57.129Z,57.90
2022-11-25T10:41:33.107Z,58.10
2022-11-25T10:51:48.686Z,58.40
2022-11-25T10:56:56.846Z,58.40
2022-11-25T11:07:43.486Z,58.90
2022-11-25T11:13:05.744Z,59.00
2022-11-25T11:23:48.885Z,59.00
2022-11-25T11:28:59.421Z,59.20
2022-11-25T11:55:01.931Z,59.60
2022-11-25T12:00:11.723Z,59.40
2022-11-25T12:05:28.705Z,59.40
2022-11-25T12:10:38.659Z,59.80
2022-11-25T12:16:09.242Z,59.30
2022-11-25T12:21:28.194Z,59.70
2022-11-25T12:26:43.215Z,59.90
2022-11-25T12:31:54.482Z,59.10
2022-11-25T12:37:11.984Z,59.70
2022-11-25T12:42:25.060Z,60.00
2022-11-25T12:47:27.770Z,60.80
2022-11-25T12:52:55.020Z,60.00
2022-11-25T13:03:50.475Z,60.30
2022-11-25T13:19:37.014Z,60.80
2022-11-25T13:24:42.361Z,60.60
2022-11-25T13:45:44.807Z,61.10
2022-11-25T13:51:10.182Z,61.30
2022-11-25T13:56:16.177Z,61.30
2022-11-25T14:01:29.460Z,61.80
2022-11-25T14:28:08.946Z,61.60
2022-11-25T14:33:16.458Z,61.60
2022-11-25T14:38:35.137Z,61.50
2022-11-25T14:43:47.516Z,61.50
2022-11-25T14:48:59.794Z,61.80
2022-11-25T14:54:02.845Z,61.90
2022-11-25T14:59:09.454Z,62.10
2022-11-25T15:09:33.226Z,61.80
2022-11-25T15:14:40.215Z,62.00
2022-11-25T15:19:42.485Z,62.20
2022-11-25T15:24:51.615Z,61.90
2022-11-25T15:29:58.503Z,62.10
2022-11-25T15:35:01.852Z,61.90
2022-11-25T15:40:43.277Z,62.00
2022-11-25T15:45:48.541Z,61.80
2022-11-25T15:50:51.089Z,61.70
2022-11-25T15:55:53.777Z,61.50
2022-11-25T16:06:31.494Z,61.60
2022-11-25T16:11:45.169Z,61.60
2022-11-25T16:16:48.028Z,61.50
2022-11-25T16:21:58.991Z,61.60
2022-11-25T16:32:16.058Z,61.50
2022-11-25T16:37:18.567Z,61.70
2022-11-25T16:42:22.269Z,61.60
2022-11-25T16:47:26.915Z,61.70
2022-11-25T16:52:29.150Z,61.60
2022-11-25T16:57:31.399Z,61.50
2022-11-25T17:02:33.792Z,61.40
2022-11-25T17:07:36.237Z,61.50
2022-11-25T17:12:39.544Z,61.70
2022-11-25T17:17:41.790Z,61.70
2022-11-25T17:22:44.069Z,61.50
2022-11-25T17:27:47.485Z,61.50
2022-11-25T17:32:57.215Z,61.40
2022-11-25T17:38:01.169Z,61.80
2022-11-25T17:43:03.499Z,61.50
2022-11-25T17:48:10.850Z,61.50
2022-11-25T17:53:13.266Z,61.30
2022-11-25T17:58:16.006Z,61.80
2022-11-25T18:03:18.313Z,61.50
2022-11-25T18:08:20.581Z,61.50
2022-11-25T18:13:22.802Z,61.60
2022-11-25T18:18:25.750Z,61.70
2022-11-25T18:23:28.080Z,61.80
2022-11-25T18:28:32.013Z,61.90
2022-11-25T18:33:34.877Z,61.50
2022-11-25T18:38:37.102Z,61.70
2022-11-25T18:43:39.493Z,61.90
2022-11-25T18:48:42.860Z,61.90
2022-11-25T18:53:45.114Z,61.60
2022-11-25T18:58:51.802Z,61.70
2022-11-25T19:03:55.445Z,61.70
2022-11-25T19:08:57.838Z,61.60
2022-11-25T19:14:08.967Z,61.90
2022-11-25T19:19:16.409Z,61.80
2022-11-25T19:24:18.741Z,61.80
2022-11-25T19:29:25.976Z,62.40
2022-11-25T19:39:37.543Z,61.70
2022-11-25T20:00:21.601Z,61.30
2022-11-25T20:05:31.679Z,62.10
2022-11-25T20:10:33.946Z,61.90
2022-11-25T20:15:38.374Z,62.10
2022-11-25T20:20:41.985Z,62.00
2022-11-25T20:25:46.982Z,61.80
2022-11-25T20:30:49.793Z,61.90
2022-11-25T20:35:59.912Z,62.20
2022-11-25T20:41:04.311Z,62.20
2022-11-25T20:46:13.640Z,62.30
2022-11-25T20:51:20.056Z,61.80
2022-11-25T20:56:24.731Z,61.50
2022-11-25T21:01:27.023Z,62.10
2022-11-25T21:06:30.603Z,62.10
2022-11-25T21:11:33.257Z,61.90
2022-11-25T21:16:35.519Z,62.10
2022-11-25T21:21:42.012Z,62.10
2022-11-25T21:26:45.345Z,61.80
2022-11-25T21:31:47.609Z,61.90
2022-11-25T21:36:52.402Z,61.60
2022-11-25T21:41:55.812Z,61.30
2022-11-25T21:46:58.434Z,61.60
2022-11-25T21:52:00.666Z,61.40
2022-11-25T21:57:02.890Z,61.20
2022-11-25T22:02:17.648Z,61.50
2022-11-25T22:07:20.073Z,61.50
2022-11-25T22:12:31.002Z,60.90
2022-11-25T22:17:33.322Z,61.10
2022-11-25T22:22:35.896Z,60.90
2022-11-25T22:27:38.472Z,60.90
2022-11-25T22:32:40.810Z,60.60
2022-11-25T22:37:43.264Z,60.30
2022-11-25T22:42:48.297Z,60.50
2022-11-25T22:47:50.817Z,60.80
2022-11-25T22:52:54.073Z,60.60
2022-11-25T22:57:58.477Z,60.40
2022-11-25T23:03:02.743Z,61.10
2022-11-25T23:08:13.599Z,60.40
2022-11-25T23:13:17.288Z,60.50
2022-11-25T23:18:39.949Z,60.40
2022-11-25T23:23:42.170Z,60.30
2022-11-25T23:28:44.406Z,60.00
2022-11-25T23:33:49.449Z,59.80
2022-11-25T23:38:58.239Z,60.00
2022-11-25T23:44:11.312Z,60.10
2022-11-25T23:49:34.349Z,60.10
2022-11-25T23:54:41.468Z,60.10
2022-11-25T23:59:44.775Z,59.50
